createdAt,value
2023-03-01T16:52:25.980Z,66.37
2023-03-01T16:54:54.323Z,66.22
2023-03-01T16:57:22.640Z,66.10
2023-03-01T16:59:54.829Z,66.55
2023-03-01T17:02:23.592Z,67.54
2023-03-01T17:04:56.509Z,67.58
2023-03-01T17:07:24.845Z,67.80
2023-03-01T17:09:53.180Z,68.25
2023-03-01T17:12:21.533Z,68.60
2023-03-01T17:14:50.881Z,68.83
2023-03-01T17:17:19.361Z,69.30
2023-03-01T17:19:47.714Z,69.26
2023-03-01T17:22:17.726Z,69.51
2023-03-01T17:24:46.505Z,69.81
2023-03-01T17:27:16.255Z,69.82
2023-03-01T17:29:44.580Z,70.11
2023-03-01T17:32:13.798Z,70.42
2023-03-01T17:34:42.944Z,70.42
2023-03-01T17:37:11.291Z,70.62
2023-03-01T17:39:39.663Z,70.55
2023-03-01T17:42:08.174Z,70.67
2023-03-01T17:44:36.656Z,70.96
2023-03-01T17:47:06.764Z,70.69
2023-03-01T17:49:35.178Z,70.99
2023-03-01T17:52:03.695Z,70.98
2023-03-01T17:54:33.665Z,71.14
2023-03-01T17:57:02.298Z,70.95
2023-03-01T17:59:33.683Z,71.42
2023-03-01T18:02:02.178Z,71.12
2023-03-01T18:04:30.745Z,71.37
2023-03-01T18:06:59.619Z,71.63
2023-03-01T18:09:28.584Z,71.74
2023-03-01T18:11:57.138Z,71.44
2023-03-01T18:14:26.197Z,71.65
2023-03-01T18:16:54.664Z,71.87
2023-03-01T18:19:23.080Z,71.94
2023-03-01T18:21:51.340Z,71.89
2023-03-01T18:24:19.770Z,71.41
2023-03-01T18:26:48.080Z,71.69
2023-03-01T18:29:16.351Z,71.80
2023-03-01T18:31:45.111Z,71.62
2023-03-01T18:34:14.047Z,71.85
2023-03-01T18:36:47.878Z,71.90
2023-03-01T18:39:25.074Z,72.19
2023-03-01T18:41:53.432Z,72.16
2023-03-01T18:44:21.902Z,72.23
2023-03-01T18:46:50.416Z,71.88
2023-03-01T18:49:19.552Z,72.08
2023-03-01T18:51:47.936Z,72.74
2023-03-01T18:54:16.530Z,71.93
2023-03-01T18:56:45.929Z,71.83
2023-03-01T18:59:14.340Z,72.46
2023-03-01T19:01:43.544Z,72.70
2023-03-01T19:04:12.301Z,72.71
2023-03-01T19:06:40.798Z,73.10
2023-03-01T19:09:11.574Z,72.82
2023-03-01T19:11:40.808Z,72.81
2023-03-01T19:14:10.414Z,72.65
2023-03-01T19:16:38.918Z,72.45
2023-03-01T19:19:09.911Z,72.91
2023-03-01T19:21:38.314Z,72.77
2023-03-01T19:24:07.746Z,72.49
2023-03-01T19:26:36.300Z,73.16
2023-03-01T19:29:06.507Z,73.30
2023-03-01T19:31:34.920Z,72.96
2023-03-01T19:34:11.386Z,73.43
2023-03-01T19:36:43.143Z,73.31
2023-03-01T19:39:13.928Z,73.24
2023-03-01T19:41:44.046Z,73.71
2023-03-01T19:44:13.498Z,74.48
2023-03-01T19:46:42.391Z,74.08
2023-03-01T19:49:11.211Z,74.30
2023-03-01T19:51:39.795Z,73.35
2023-03-01T19:54:10.009Z,73.45
2023-03-01T19:56:41.233Z,73.88
2023-03-01T19:59:09.584Z,74.31
2023-03-01T20:01:38.924Z,74.48
2023-03-01T20:04:07.295Z,74.54
2023-03-01T20:06:36.750Z,74.45
2023-03-01T20:09:20.421Z,74.26
2023-03-01T20:11:51.489Z,74.22
2023-03-01T20:14:22.475Z,74.09
2023-03-01T20:16:52.496Z,73.90
2023-03-01T20:19:21.493Z,73.69
2023-03-01T20:21:50.728Z,73.95
2023-03-01T20:24:19.116Z,73.62
2023-03-01T20:26:47.563Z,73.15
2023-03-01T20:29:16.000Z,73.66
2023-03-01T20:31:44.400Z,74.01
2023-03-01T20:34:12.970Z,74.65
2023-03-01T20:36:42.964Z,76.34
2023-03-01T20:39:12.087Z,75.33
2023-03-01T20:41:40.950Z,75.10
2023-03-01T20:44:09.721Z,75.21
2023-03-01T20:46:38.780Z,74.55
2023-03-01T20:49:07.695Z,74.49
2023-03-01T20:51:36.104Z,75.43
2023-03-01T20:54:05.261Z,75.68
2023-03-01T20:56:34.513Z,76.11
2023-03-01T20:59:09.505Z,76.22
2023-03-01T21:01:39.732Z,76.48
2023-03-01T21:04:09.373Z,76.53
2023-03-01T21:06:39.132Z,76.33
2023-03-01T21:09:07.590Z,76.23
2023-03-01T21:11:36.338Z,75.92
2023-03-01T21:14:07.992Z,75.97
2023-03-01T21:16:36.679Z,75.57
2023-03-01T21:19:05.463Z,75.40
2023-03-01T21:21:33.865Z,76.40
2023-03-01T21:24:02.271Z,76.75
2023-03-01T21:26:31.282Z,77.01
2023-03-01T21:29:01.725Z,77.46
2023-03-01T21:31:34.208Z,78.25
2023-03-01T21:34:05.780Z,78.08
2023-03-01T21:36:35.963Z,78.48
2023-03-01T21:39:06.604Z,77.74
2023-03-01T21:41:37.816Z,76.42
2023-03-01T21:44:07.693Z,76.66
2023-03-01T21:46:39.329Z,76.32
2023-03-01T21:49:10.403Z,76.44
2023-03-01T21:51:38.870Z,76.28
2023-03-01T21:54:07.403Z,76.29
2023-03-01T21:56:43.574Z,76.21
2023-03-01T21:59:20.245Z,76.84
2023-03-01T22:01:50.780Z,76.98
2023-03-01T22:04:20.674Z,76.38
2023-03-01T22:06:49.954Z,76.53
2023-03-01T22:09:23.476Z,76.32
2023-03-01T22:12:02.627Z,76.45
2023-03-01T22:14:32.738Z,76.10
2023-03-01T22:17:01.169Z,76.12
2023-03-01T22:19:30.446Z,75.72
2023-03-01T22:21:58.764Z,75.74
2023-03-01T22:24:27.118Z,75.44
2023-03-01T22:26:55.683Z,75.44
2023-03-01T22:29:30.858Z,75.06
2023-03-01T22:31:59.586Z,74.89
2023-03-01T22:34:28.118Z,74.80
2023-03-01T22:36:57.180Z,74.56
2023-03-01T22:39:25.626Z,74.50
2023-03-01T22:41:54.786Z,74.49
2023-03-01T22:44:24.095Z,74.41
2023-03-01T22:46:52.491Z,74.14
2023-03-01T22:49:21.587Z,74.19
2023-03-01T22:51:50.626Z,74.22
2023-03-01T22:54:20.694Z,74.11
2023-03-01T22:56:49.750Z,73.93
2023-03-01T22:59:20.959Z,74.00
2023-03-01T23:01:49.753Z,74.11
2023-03-01T23:04:19.669Z,74.00
2023-03-01T23:06:50.836Z,73.83
2023-03-01T23:09:22.221Z,74.05
2023-03-01T23:11:51.806Z,74.44
2023-03-01T23:14:21.395Z,74.92
2023-03-01T23:16:50.931Z,75.57
2023-03-01T23:19:19.297Z,75.42
2023-03-01T23:21:50.557Z,75.34
2023-03-01T23:24:21.617Z,75.05
2023-03-01T23:26:55.894Z,76.22
2023-03-01T23:29:24.287Z,76.91
2023-03-01T23:31:57.858Z,77.13
2023-03-01T23:34:27.574Z,76.63
2023-03-01T23:36:56.093Z,76.34
2023-03-01T23:39:24.534Z,76.32
2023-03-01T23:41:52.888Z,76.27
2023-03-01T23:44:22.016Z,76.77
2023-03-01T23:46:51.274Z,77.40
2023-03-01T23:49:22.535Z,77.20
2023-03-01T23:51:51.398Z,77.03
2023-03-01T23:54:23.290Z,77.30
2023-03-01T23:56:52.054Z,77.26
2023-03-01T23:59:24.614Z,77.54
